Terminal Aerodrome Forecast
Issued by NWS

Home | Current Version | Previous Version | Text Only | Print | Product List | Glossary On
Versions: 1 2 3 4 5 6 7 8 9 10 11 12 13 14 15 16 17 18 19 20 21
000
FTUS44 KSJT 051124
TAFJCT
TAF
KJCT 051124Z 0512/0612 17006KT P6SM SCT025
      TEMPO 0513/0515 BKN020
     FM051700 16009KT P6SM SCT070
     FM060200 14006KT P6SM SKC=

USA.gov is the U.S. government's official web portal to all federal, state and local government web resources and services.